METAR Data
IDs: Format: Raw Decoded Include TAF

Data at: 0536 UTC 24 Sep 2018

KFOA 240515Z AUTO 13005KT 10SM OVC012 20/18 A3004 RMK AO2 T02010181
KFOA 240455Z AUTO 12004KT 10SM SCT012 OVC050 20/18 A3004 RMK AO2 T02010180
KFOA 240435Z AUTO 11005KT 10SM BKN050 OVC080 20/18 A3004 RMK AO2 T02020180
KFOA 240415Z AUTO 12005KT 10SM SCT050 OVC080 21/18 A3005 RMK AO2 T02050181
KFOA 240355Z AUTO 13005KT 10SM OVC080 21/18 A3005 RMK AO2 T02060181
KFOA 240335Z AUTO 14003KT 10SM SCT040 OVC080 21/18 A3004 RMK AO2 T02060180
KFOA 240315Z AUTO 12007KT 10SM OVC040 21/18 A3005 RMK AO2 T02080178
KFOA 240255Z AUTO 13006KT 10SM OVC040 21/18 A3005 RMK AO2 T02110180
KFOA 240235Z AUTO 12007KT 10SM OVC040 21/18 A3004 RMK AO2 T02140180
KFOA 240215Z AUTO 12006KT 10SM OVC040 22/18 A3005 RMK AO2 T02160180
KFOA 240155Z AUTO 11006KT 10SM OVC040 22/18 A3005 RMK AO2 T02170179
KFOA 240135Z AUTO 12007KT 10SM OVC040 22/18 A3004 RMK AO2 T02200178
KFOA 240115Z AUTO 12006KT 10SM OVC040 22/18 A3004 RMK AO2 T02210178
KFOA 240055Z AUTO 12005KT 10SM OVC044 23/18 A3003 RMK AO2 T02250180
KFOA 240035Z AUTO 11006KT 10SM OVC044 23/18 A3002 RMK AO2 T02250177
KFOA 240015Z AUTO 12003KT 10SM BKN044 BKN055 23/18 A3002 RMK AO2 T02250180
KFOA 232355Z AUTO 11004KT 10SM BKN055 23/18 A3002 RMK AO2 T02290177 10275 20229
KFOA 232335Z AUTO 11006KT 10SM SCT055 24/18 A3002 RMK AO2 T02350177
KFOA 232315Z AUTO 12008KT 10SM BKN049 24/18 A3002 RMK AO2 T02390178
KFOA 232255Z AUTO 12008KT 10SM OVC049 25/18 A3002 RMK AO2 T02460176
KFOA 232235Z AUTO 12007KT 10SM OVC047 26/17 A3002 RMK AO2 T02550174
KFOA 232215Z AUTO 11007KT 10SM BKN047 26/17 A3002 RMK AO2 T02560172
KFOA 232155Z AUTO 11007KT 10SM SCT060 26/17 A3002 RMK AO2 T02580171
KFOA 232135Z AUTO 08005KT 10SM SCT047 BKN060 26/17 A3002 RMK AO2 T02600168
KFOA 232115Z AUTO 11006KT 10SM SCT049 OVC060 27/17 A3002 RMK AO2 T02650165
KFOA 232055Z AUTO 09005KT 10SM BKN049 OVC060 27/16 A3002 RMK AO2 T02650162
KFOA 232035Z AUTO 07007KT 10SM BKN047 BKN060 27/16 A3002 RMK AO2 T02660156
KFOA 232015Z AUTO 07007KT 10SM CLR 27/16 A3003 RMK AO2 T02690157
KFOA 231955Z AUTO 06005KT 10SM SCT065 27/15 A3003 RMK AO2 T02660154
KFOA 231935Z AUTO 06010KT 10SM SCT065 27/16 A3004 RMK AO2 T02700159
KFOA 231915Z AUTO 00000KT 10SM CLR 26/15 A3005 RMK AO2 T02610152
KFOA 231855Z AUTO 08006KT 10SM CLR 26/16 A3006 RMK AO2 T02640157
KFOA 231835Z AUTO 04008KT 10SM CLR 26/15 A3007 RMK AO2 T02590152
KFOA 231815Z AUTO 09007G15KT 10SM CLR 26/16 A3007 RMK AO2 T02560155
KFOA 231755Z AUTO 06009G14KT 10SM CLR 26/15 A3008 RMK AO2 T02550151 10255 20153
KFOA 231735Z AUTO 07009KT 10SM CLR 25/15 A3009 RMK AO2 T02530147
KFOA 231715Z AUTO 05009KT 10SM CLR 25/14 A3010 RMK AO2 T02460144
KFOA 231655Z AUTO 08010KT 10SM CLR 24/15 A3010 RMK AO2 T02430149
KFOA 231635Z AUTO 09010G14KT 10SM CLR 24/16 A3010 RMK AO2 T02390156
KFOA 231615Z AUTO 07007KT 10SM CLR 23/15 A3010 RMK AO2 T02280154
KFOA 231555Z AUTO 03007KT 10SM CLR 22/16 A3010 RMK AO2 T02230157
KFOA 231535Z AUTO 01005KT 10SM CLR 22/16 A3010 RMK AO2 T02180157
KFOA 231515Z AUTO 05004KT 10SM CLR 21/16 A3011 RMK AO2 T02060155
KFOA 231450Z AUTO 04005KT 10SM CLR 20/15 A3012 RMK AO2 T01960153
KFOA 231435Z AUTO 05004KT 10SM CLR 20/15 A3012 RMK AO2 T01950154
KFOA 231415Z AUTO 05005KT 10SM CLR 19/15 A3012 RMK AO2 T01860148
KFOA 231355Z AUTO 05005KT 10SM CLR 18/15 A3012 RMK AO2 T01840149
KFOA 231335Z AUTO 04004KT 10SM SCT048 18/15 A3011 RMK AO2 T01770145
KFOA 231315Z AUTO 03005KT 10SM OVC048 17/15 A3011 RMK AO2 T01690145
KFOA 231255Z AUTO 02004KT 10SM OVC050 16/14 A3011 RMK AO2 T01590140
KFOA 231235Z AUTO 02004KT 10SM OVC050 16/14 A3010 RMK AO2 T01550140
KFOA 231215Z AUTO 02004KT 10SM OVC050 15/14 A3010 RMK AO2 T01530139
KFOA 231155Z AUTO 01004KT 10SM OVC050 15/14 A3010 RMK AO2 70009 T01530139 10153 20140
KFOA 231135Z AUTO 02003KT 10SM SCT027 SCT033 OVC050 15/14 A3010 RMK AO2 T01520138
KFOA 231115Z AUTO 02003KT 10SM BKN025 BKN033 OVC050 15/14 A3010 RMK AO2 T01510139
KFOA 231055Z AUTO 03003KT 10SM SCT025 OVC055 15/14 A3009 RMK AO2 T01510138
KFOA 231035Z AUTO 02004KT 10SM SCT028 SCT035 OVC055 15/14 A3009 RMK AO2 T01500137
KFOA 231015Z AUTO 00000KT 10SM SCT028 OVC035 15/14 A3009 RMK AO2 T01500137
KFOA 230955Z AUTO 03003KT 10SM OVC033 15/14 A3009 RMK AO2 T01470136
KFOA 230935Z AUTO 02003KT 10SM OVC033 15/14 A3009 RMK AO2 T01470136
KFOA 230915Z AUTO 00000KT 10SM OVC035 15/13 A3010 RMK AO2 T01450133
KFOA 230850Z AUTO 01003KT 10SM BKN037 BKN055 14/13 A3010 RMK AO2 T01410132
KFOA 230835Z AUTO 36003KT 10SM SCT055 14/13 A3009 RMK AO2 T01400130
KFOA 230815Z AUTO 03003KT 10SM SCT055 14/13 A3009 RMK AO2 T01420131
KFOA 230755Z AUTO 03003KT 10SM CLR 14/13 A3010 RMK AO2 T01420130
KFOA 230735Z AUTO 02004KT 10SM CLR 15/13 A3010 RMK AO2 T01450131
KFOA 230715Z AUTO 02004KT 10SM CLR 15/13 A3010 RMK AO2 T01470131
KFOA 230655Z AUTO 03006KT 10SM BKN049 15/13 A3010 RMK AO2 T01470131
KFOA 230635Z AUTO 04003KT 10SM OVC049 15/13 A3011 RMK AO2 T01470132
KFOA 230615Z AUTO 03004KT 10SM SCT049 15/13 A3012 RMK AO2 T01470131
KFOA 230555Z AUTO 04003KT 10SM CLR 15/13 A3011 RMK AO2 T01470132 10167 20147 401850147
KFOA 230535Z AUTO 03004KT 10SM SCT049 15/13 A3012 RMK AO2 T01470132
KFOA 230515Z AUTO 03003KT 10SM CLR 15/14 A3013 RMK AO2 T01470135
KFOA 230455Z AUTO 00000KT 10SM CLR 15/14 A3015 RMK AO2 T01480135
KFOA 230435Z AUTO 03003KT 10SM SCT050 15/14 A3014 RMK AO2 T01510135
KFOA 230415Z AUTO 00000KT 10SM SCT042 SCT050 15/14 A3014 RMK AO2 T01510135
KFOA 230355Z AUTO 00000KT 10SM SCT042 15/14 A3014 RMK AO2 T01510135
KFOA 230335Z AUTO 05003KT 10SM CLR 15/14 A3015 RMK AO2 T01520136
KFOA 230315Z AUTO 00000KT 10SM CLR 16/14 A3016 RMK AO2 T01550137
KFOA 230255Z AUTO 00000KT 10SM BKN044 16/14 A3017 RMK AO2 T01550138
KFOA 230235Z AUTO 00000KT 10SM OVC046 16/14 A3017 RMK AO2 T01570139
KFOA 230215Z AUTO 00000KT 10SM BKN046 16/14 A3018 RMK AO2 T01550137
KFOA 230155Z AUTO 04003KT 10SM CLR 15/14 A3017 RMK AO2 T01530137
KFOA 230135Z AUTO 04004KT 10SM SCT045 15/14 A3017 RMK AO2 T01510136
KFOA 230115Z AUTO 00000KT 10SM SCT045 15/14 A3018 RMK AO2 T01500136
KFOA 230055Z AUTO 00000KT 10SM CLR 16/14 A3018 RMK AO2 T01560135
KFOA 230035Z AUTO 00000KT 10SM CLR 16/14 A3017 RMK AO2 T01600135
KFOA 230015Z AUTO 08003KT 10SM CLR 16/14 A3017 RMK AO2 T01630135
KFOA 222355Z AUTO 08003KT 10SM CLR 17/13 A3016 RMK AO2 60002 T01670134 10185 20161
KFOA 222335Z AUTO 08004KT 10SM CLR 18/14 A3016 RMK AO2 T01770136
KFOA 222315Z AUTO 07007KT 10SM CLR 18/13 A3016 RMK AO2 T01800132
KFOA 222255Z AUTO 06008KT 10SM CLR 18/13 A3016 RMK AO2 T01830131
KFOA 222235Z AUTO 06006KT 10SM CLR 18/13 A3016 RMK AO2 T01810132
KFOA 222215Z AUTO 05006KT 10SM CLR 18/13 A3016 RMK AO2 T01780132
KFOA 222155Z AUTO 05008KT 10SM CLR 18/13 A3017 RMK AO2 T01780131
KFOA 222135Z AUTO 07007KT 10SM CLR 18/13 A3017 RMK AO2 T01770133
KFOA 222115Z AUTO 08007KT 10SM CLR 18/14 A3016 RMK AO2 T01770138
KFOA 222055Z AUTO 02004KT 10SM CLR 18/14 A3019 RMK AO2 60002 T01770140
KFOA 222035Z AUTO 36004KT 10SM CLR 17/14 A3019 RMK AO2 T01730142
KFOA 222015Z AUTO 03004KT 10SM CLR 17/14 A3018 RMK AO2 T01680139
KFOA 221955Z AUTO 06006KT 10SM CLR 17/14 A3018 RMK AO2 T01680144
KFOA 221930Z AUTO 00000KT 10SM CLR 17/15 A3021 RMK AO2 T01670146
KFOA 221915Z AUTO 00000KT 10SM CLR 17/15 A3022 RMK AO2 T01660145
KFOA 221855Z AUTO 07005KT 10SM -RA SCT037 SCT047 BKN095 16/15 A3020 RMK AO2 P0002 T01630145
KFOA 221835Z AUTO 05005KT 10SM -RA SCT043 BKN050 OVC065 16/14 A3021 RMK AO2 P0002 T01620141
KFOA 221815Z AUTO 07003KT 10SM -RA SCT039 BKN050 OVC060 16/14 A3021 RMK AO2 P0001 T01620141
KFOA 221755Z AUTO 03004KT 10SM -RA SCT035 BKN045 OVC050 16/14 A3022 RMK AO2 P0001 60007 T01620139 10167 20155